createdAt,value
2023-07-15T00:01:21.368Z,19.20
2023-07-15T00:03:47.872Z,19.22
2023-07-15T00:06:14.778Z,19.43
2023-07-15T00:08:41.374Z,19.24
2023-07-15T00:11:07.702Z,19.09
2023-07-15T00:13:34.066Z,18.95
2023-07-15T00:16:00.408Z,18.86
2023-07-15T00:18:26.976Z,18.86
2023-07-15T00:20:53.311Z,18.89
2023-07-15T00:23:19.639Z,18.92
2023-07-15T00:25:46.182Z,18.94
2023-07-15T00:28:12.554Z,18.95
2023-07-15T00:30:38.970Z,18.97
2023-07-15T00:33:05.406Z,18.96
2023-07-15T00:35:31.872Z,18.98
2023-07-15T00:37:58.460Z,18.97
2023-07-15T00:40:25.057Z,18.93
2023-07-15T00:42:51.543Z,18.91
2023-07-15T00:45:18.737Z,18.88
2023-07-15T00:47:45.082Z,18.84
2023-07-15T00:50:11.429Z,18.77
2023-07-15T00:52:37.737Z,18.73
2023-07-15T00:55:04.104Z,18.66
2023-07-15T00:57:30.492Z,18.67
2023-07-15T00:59:56.908Z,18.66
2023-07-15T01:02:23.370Z,18.69
2023-07-15T01:04:49.873Z,18.70
2023-07-15T01:07:16.227Z,18.68
2023-07-15T01:09:42.562Z,18.69
2023-07-15T01:12:08.929Z,18.73
2023-07-15T01:14:35.423Z,18.73
2023-07-15T01:17:01.800Z,18.73
2023-07-15T01:19:28.118Z,18.73
2023-07-15T01:21:54.549Z,18.70
2023-07-15T01:24:20.922Z,18.71
2023-07-15T01:26:47.438Z,18.64
2023-07-15T01:29:14.004Z,18.55
2023-07-15T01:31:41.456Z,18.47
2023-07-15T01:34:07.991Z,18.34
2023-07-15T01:36:34.435Z,18.29
2023-07-15T01:39:00.856Z,18.22
2023-07-15T01:41:27.260Z,18.05
2023-07-15T01:43:53.640Z,18.12
2023-07-15T01:46:20.099Z,18.14
2023-07-15T01:48:46.445Z,18.15
2023-07-15T01:51:12.790Z,18.12
2023-07-15T01:53:40.252Z,18.10
2023-07-15T01:56:06.643Z,18.00
2023-07-15T01:58:33.078Z,17.90
2023-07-15T02:00:59.502Z,17.88
2023-07-15T02:03:26.046Z,17.87
2023-07-15T02:05:52.482Z,17.90
2023-07-15T02:08:19.043Z,17.93
2023-07-15T02:10:45.420Z,17.98
2023-07-15T02:13:11.792Z,17.93
2023-07-15T02:15:38.114Z,17.90
2023-07-15T02:18:04.604Z,17.82
2023-07-15T02:20:31.097Z,17.72
2023-07-15T02:22:57.552Z,17.68
2023-07-15T02:25:23.996Z,17.68
2023-07-15T02:27:50.434Z,17.67
2023-07-15T02:30:16.858Z,17.69
2023-07-15T02:32:43.284Z,17.70
2023-07-15T02:35:09.685Z,17.74
2023-07-15T02:37:36.282Z,17.77
2023-07-15T02:40:03.104Z,17.77
2023-07-15T02:42:29.432Z,17.80
2023-07-15T02:44:55.942Z,17.68
2023-07-15T02:47:22.304Z,17.69
2023-07-15T02:49:48.647Z,17.58
2023-07-15T02:52:14.973Z,17.45
2023-07-15T02:54:41.292Z,17.32
2023-07-15T02:57:07.681Z,17.31
2023-07-15T02:59:34.075Z,17.29
2023-07-15T03:02:00.477Z,17.28
2023-07-15T03:04:26.817Z,17.50
2023-07-15T03:06:53.147Z,17.26
2023-07-15T03:09:19.525Z,17.17
2023-07-15T03:11:45.904Z,17.16
2023-07-15T03:14:12.274Z,17.16
2023-07-15T03:16:38.627Z,17.14
2023-07-15T03:19:04.956Z,17.12
2023-07-15T03:21:31.328Z,17.07
2023-07-15T03:23:57.892Z,17.01
2023-07-15T03:26:24.213Z,16.96
2023-07-15T03:28:50.833Z,16.93
2023-07-15T03:31:17.247Z,16.90
2023-07-15T03:33:43.661Z,16.88
2023-07-15T03:36:10.005Z,16.75
2023-07-15T03:38:37.400Z,16.73
2023-07-15T03:41:03.784Z,16.79
2023-07-15T03:43:30.191Z,16.99
2023-07-15T03:45:56.597Z,16.67
2023-07-15T03:48:22.935Z,16.64
2023-07-15T03:50:49.365Z,16.62
2023-07-15T03:53:15.909Z,16.64
2023-07-15T03:55:42.243Z,16.63
2023-07-15T03:58:08.562Z,16.66
2023-07-15T04:00:34.925Z,16.56
2023-07-15T04:03:01.362Z,16.59
2023-07-15T04:05:27.799Z,16.62
2023-07-15T04:07:54.139Z,16.56
2023-07-15T04:10:20.551Z,16.57
2023-07-15T04:12:46.892Z,16.52
2023-07-15T04:15:13.277Z,16.53
2023-07-15T04:17:39.830Z,16.48
2023-07-15T04:20:06.455Z,16.47
2023-07-15T04:22:32.839Z,16.50
2023-07-15T04:24:59.255Z,16.52
2023-07-15T04:27:25.844Z,16.58
2023-07-15T04:29:52.175Z,16.58
2023-07-15T04:32:18.693Z,16.59
2023-07-15T04:34:45.139Z,16.59
2023-07-15T04:37:11.469Z,16.63
2023-07-15T04:39:37.838Z,16.63
2023-07-15T04:42:04.287Z,16.49
2023-07-15T04:44:30.713Z,16.45
2023-07-15T04:46:57.034Z,16.52
2023-07-15T04:49:23.392Z,16.59
2023-07-15T04:51:49.715Z,16.54
2023-07-15T04:54:16.091Z,16.50
2023-07-15T04:56:44.745Z,16.33
2023-07-15T04:59:11.224Z,16.38
2023-07-15T05:01:37.981Z,16.38
2023-07-15T05:04:06.372Z,16.51
2023-07-15T05:06:32.762Z,16.68
2023-07-15T05:09:01.443Z,16.74
2023-07-15T05:11:27.802Z,16.86
2023-07-15T05:13:54.632Z,16.80
2023-07-15T05:16:21.136Z,16.93
2023-07-15T05:18:47.665Z,17.02
2023-07-15T05:21:14.209Z,17.08
2023-07-15T05:23:40.768Z,17.15
2023-07-15T05:26:07.336Z,17.31
2023-07-15T05:28:33.759Z,17.29
2023-07-15T05:31:00.169Z,17.34
2023-07-15T05:33:26.571Z,17.46
2023-07-15T05:35:52.897Z,17.67
2023-07-15T05:38:19.279Z,17.72
2023-07-15T05:40:45.626Z,17.80
2023-07-15T05:43:12.000Z,17.76
2023-07-15T05:45:38.401Z,17.81
2023-07-15T05:48:04.912Z,17.90
2023-07-15T05:50:31.416Z,18.09
2023-07-15T05:52:58.039Z,18.16
2023-07-15T05:55:24.470Z,18.28
2023-07-15T05:57:51.055Z,18.44
2023-07-15T06:00:17.380Z,18.59
2023-07-15T06:02:43.755Z,18.70
2023-07-15T06:05:10.183Z,18.81
2023-07-15T06:07:36.760Z,18.94
2023-07-15T06:10:03.141Z,19.05
2023-07-15T06:12:29.470Z,19.11
2023-07-15T06:14:55.844Z,19.27
2023-07-15T06:17:22.447Z,19.36
2023-07-15T06:19:48.919Z,19.45
2023-07-15T06:22:15.252Z,19.56
2023-07-15T06:24:41.590Z,19.66
2023-07-15T06:27:07.918Z,19.75
2023-07-15T06:29:34.311Z,19.87
2023-07-15T06:32:00.653Z,19.96
2023-07-15T06:34:26.988Z,20.22
2023-07-15T06:36:55.824Z,20.34
2023-07-15T06:39:22.553Z,20.51
2023-07-15T06:41:48.947Z,20.61
2023-07-15T06:44:15.279Z,20.86
2023-07-15T06:46:41.715Z,21.14
2023-07-15T06:49:08.061Z,21.28
2023-07-15T06:51:34.387Z,21.42
2023-07-15T06:54:00.733Z,21.59
2023-07-15T06:56:27.057Z,21.80
2023-07-15T06:58:53.373Z,21.93
2023-07-15T07:01:19.943Z,22.13
2023-07-15T07:03:46.616Z,22.32
2023-07-15T07:06:12.953Z,22.29
2023-07-15T07:08:39.287Z,22.39
2023-07-15T07:11:05.611Z,22.56
2023-07-15T07:13:32.011Z,22.66
2023-07-15T07:15:58.388Z,22.90
2023-07-15T07:18:24.818Z,23.03
2023-07-15T07:20:51.246Z,23.15
2023-07-15T07:23:17.643Z,23.13
2023-07-15T07:25:43.977Z,23.28
2023-07-15T07:28:10.311Z,23.40
2023-07-15T07:30:36.670Z,23.50
2023-07-15T07:33:03.088Z,23.51
2023-07-15T07:35:29.488Z,23.60
2023-07-15T07:37:55.854Z,23.63
2023-07-15T07:40:22.259Z,23.73
2023-07-15T07:42:48.624Z,23.90
2023-07-15T07:45:14.927Z,24.05
2023-07-15T07:47:41.295Z,23.93
2023-07-15T07:50:07.665Z,24.01
2023-07-15T07:52:34.039Z,24.22
2023-07-15T07:55:00.361Z,24.47
2023-07-15T07:57:26.679Z,24.54
2023-07-15T07:59:52.990Z,24.71
2023-07-15T08:02:19.395Z,24.95
2023-07-15T08:04:45.851Z,25.17
2023-07-15T08:07:12.439Z,25.42
2023-07-15T08:09:38.846Z,25.74
2023-07-15T08:12:05.296Z,25.71
2023-07-15T08:14:31.622Z,26.11
2023-07-15T08:16:58.026Z,26.41
2023-07-15T08:19:24.442Z,26.74
2023-07-15T08:21:50.819Z,27.04
2023-07-15T08:24:17.153Z,27.32
2023-07-15T08:26:43.544Z,27.56
2023-07-15T08:29:09.912Z,27.78
2023-07-15T08:31:36.367Z,27.93
2023-07-15T08:34:02.757Z,28.04
2023-07-15T08:36:29.115Z,28.10
2023-07-15T08:38:55.426Z,28.09
2023-07-15T08:41:21.789Z,28.07
2023-07-15T08:43:50.816Z,28.06
2023-07-15T08:46:17.687Z,28.12
2023-07-15T08:48:44.106Z,27.82
2023-07-15T08:51:10.426Z,27.99
2023-07-15T08:53:36.767Z,27.98
2023-07-15T08:56:03.170Z,28.05
2023-07-15T08:58:29.550Z,28.29
2023-07-15T09:00:56.026Z,28.45
2023-07-15T09:03:22.420Z,28.35
2023-07-15T09:05:48.851Z,28.45
2023-07-15T09:08:15.171Z,27.87
2023-07-15T09:10:41.569Z,27.63
2023-07-15T09:13:07.894Z,28.04
2023-07-15T09:15:34.273Z,28.23
2023-07-15T09:18:00.781Z,28.27
2023-07-15T09:20:27.276Z,28.42
2023-07-15T09:22:53.831Z,28.53
2023-07-15T09:25:20.341Z,28.53
2023-07-15T09:27:46.670Z,27.97
2023-07-15T09:30:13.042Z,28.29
2023-07-15T09:32:39.465Z,28.49
2023-07-15T09:35:05.864Z,28.60
2023-07-15T09:37:32.235Z,28.69
2023-07-15T09:39:58.638Z,28.76
2023-07-15T09:42:25.025Z,28.95
2023-07-15T09:44:51.428Z,28.95
2023-07-15T09:47:17.745Z,28.90
2023-07-15T09:49:44.115Z,28.84
2023-07-15T09:52:10.498Z,29.26
2023-07-15T09:54:36.882Z,29.17
2023-07-15T09:57:03.218Z,28.56
2023-07-15T09:59:29.549Z,28.73
2023-07-15T10:01:55.904Z,28.56
2023-07-15T10:04:22.352Z,28.61
2023-07-15T10:06:48.751Z,28.81
2023-07-15T10:09:15.074Z,28.73
2023-07-15T10:11:41.403Z,28.95
2023-07-15T10:14:07.711Z,28.94
2023-07-15T10:16:34.142Z,29.07
2023-07-15T10:19:00.558Z,29.42
2023-07-15T10:21:26.867Z,29.80
2023-07-15T10:23:53.181Z,29.42
2023-07-15T10:26:19.552Z,29.19
2023-07-15T10:28:45.879Z,29.29
2023-07-15T10:31:12.256Z,28.93
2023-07-15T10:33:38.639Z,28.86
2023-07-15T10:36:05.025Z,28.43
2023-07-15T10:38:31.345Z,28.62
2023-07-15T10:40:57.720Z,28.58
2023-07-15T10:43:24.097Z,28.76
2023-07-15T10:45:50.433Z,28.71
2023-07-15T10:48:16.795Z,28.76
2023-07-15T10:50:43.180Z,28.62
2023-07-15T10:53:09.576Z,28.73
2023-07-15T10:55:35.986Z,28.72
2023-07-15T10:58:02.315Z,28.58
2023-07-15T11:00:28.835Z,28.86
2023-07-15T11:02:55.310Z,29.02
2023-07-15T11:05:21.763Z,29.12
2023-07-15T11:07:48.159Z,29.07
2023-07-15T11:10:14.643Z,29.06
2023-07-15T11:12:41.089Z,29.11
2023-07-15T11:15:07.459Z,29.37
2023-07-15T11:17:33.888Z,29.19
2023-07-15T11:20:00.309Z,29.01
2023-07-15T11:22:26.664Z,29.19
2023-07-15T11:24:53.016Z,29.26
2023-07-15T11:27:19.505Z,29.09
2023-07-15T11:29:45.847Z,29.04
2023-07-15T11:32:12.161Z,28.92
2023-07-15T11:34:38.571Z,29.02
2023-07-15T11:37:04.981Z,29.15
2023-07-15T11:39:31.307Z,29.33
2023-07-15T11:41:57.625Z,29.65
2023-07-15T11:44:24.072Z,29.63
2023-07-15T11:46:50.656Z,29.75
2023-07-15T11:49:17.225Z,29.77
2023-07-15T11:51:43.694Z,29.85
2023-07-15T11:54:10.088Z,29.74
2023-07-15T11:56:39.217Z,30.06
2023-07-15T11:59:05.564Z,30.10
2023-07-15T12:01:31.934Z,30.00
2023-07-15T12:04:00.650Z,29.74
2023-07-15T12:06:27.578Z,29.71
2023-07-15T12:08:53.911Z,29.18
2023-07-15T12:11:20.284Z,29.37
2023-07-15T12:13:46.622Z,29.42
2023-07-15T12:16:13.337Z,28.98
2023-07-15T12:18:39.991Z,29.39
2023-07-15T12:21:06.337Z,29.23
2023-07-15T12:23:32.703Z,29.14
2023-07-15T12:25:59.100Z,29.42
2023-07-15T12:28:25.443Z,29.32
2023-07-15T12:30:51.827Z,29.18
2023-07-15T12:33:18.222Z,28.97
2023-07-15T12:35:44.602Z,29.07
2023-07-15T12:38:10.989Z,28.93
2023-07-15T12:40:37.368Z,29.05
2023-07-15T12:43:03.902Z,29.18
2023-07-15T12:45:30.290Z,29.47
2023-07-15T12:47:58.818Z,29.66
2023-07-15T12:50:25.470Z,29.79
2023-07-15T12:52:51.794Z,29.65
2023-07-15T12:55:18.097Z,29.74
2023-07-15T12:57:44.485Z,29.89
2023-07-15T13:00:10.808Z,30.12
2023-07-15T13:02:37.223Z,30.16
2023-07-15T13:05:03.613Z,30.07
2023-07-15T13:07:29.932Z,30.06
2023-07-15T13:09:56.489Z,30.19
2023-07-15T13:12:22.879Z,30.14
2023-07-15T13:14:49.265Z,30.15
2023-07-15T13:17:15.692Z,29.85
2023-07-15T13:19:42.017Z,30.17
2023-07-15T13:22:08.379Z,30.15
2023-07-15T13:24:34.714Z,29.93
2023-07-15T13:27:01.042Z,30.08
2023-07-15T13:29:27.381Z,30.10
2023-07-15T13:31:53.738Z,30.09
2023-07-15T13:34:20.129Z,30.06
2023-07-15T13:39:35.957Z,30.53
2023-07-15T13:44:44.792Z,30.87
2023-07-15T13:52:47.799Z,30.84
2023-07-15T14:32:20.019Z,30.80
2023-07-15T14:34:46.424Z,30.82
2023-07-15T14:37:13.106Z,30.76
2023-07-15T14:39:39.483Z,30.70
2023-07-15T14:42:05.888Z,30.46
2023-07-15T14:44:32.275Z,30.51
2023-07-15T14:46:58.688Z,30.37
2023-07-15T14:49:26.114Z,30.42
2023-07-15T14:51:52.628Z,30.48
2023-07-15T14:54:18.997Z,30.43
2023-07-15T14:56:45.377Z,30.49
2023-07-15T14:59:11.764Z,30.31
2023-07-15T15:01:38.254Z,30.32
2023-07-15T15:04:04.739Z,30.30
2023-07-15T15:06:31.136Z,30.18
2023-07-15T15:08:57.456Z,30.54
2023-07-15T15:11:23.804Z,30.57
2023-07-15T15:13:50.181Z,30.43
2023-07-15T15:16:16.517Z,30.47
2023-07-15T15:18:42.846Z,30.55
2023-07-15T15:21:09.242Z,30.35
2023-07-15T15:23:35.661Z,30.66
2023-07-15T15:26:02.006Z,30.57
2023-07-15T15:28:28.371Z,30.78
2023-07-15T15:30:54.751Z,30.77
2023-07-15T15:33:21.219Z,30.40
2023-07-15T15:35:47.622Z,30.55
2023-07-15T15:38:13.955Z,30.82
2023-07-15T15:40:40.324Z,30.64
2023-07-15T15:43:06.703Z,30.30
2023-07-15T15:45:33.069Z,30.49
2023-07-15T15:47:59.542Z,30.26
2023-07-15T15:50:25.909Z,30.38
2023-07-15T15:52:52.221Z,30.33
2023-07-15T15:55:18.584Z,30.26
2023-07-15T15:57:44.902Z,30.01
2023-07-15T16:00:11.211Z,29.85
2023-07-15T16:02:37.600Z,29.72
2023-07-15T16:05:04.017Z,29.57
2023-07-15T16:07:30.348Z,29.61
2023-07-15T16:09:56.711Z,29.83
2023-07-15T16:12:23.094Z,29.83
2023-07-15T16:14:49.475Z,30.02
2023-07-15T16:17:15.853Z,30.19
2023-07-15T16:19:42.166Z,30.04
2023-07-15T16:22:08.552Z,29.98
2023-07-15T16:24:34.937Z,30.03
2023-07-15T16:27:01.326Z,30.12
2023-07-15T16:29:27.664Z,29.87
2023-07-15T16:31:54.017Z,29.86
2023-07-15T16:34:20.407Z,29.68
2023-07-15T16:36:46.739Z,29.87
2023-07-15T16:39:13.063Z,29.91
2023-07-15T16:41:39.376Z,29.91
2023-07-15T16:44:05.703Z,29.94
2023-07-15T16:46:32.058Z,29.83
2023-07-15T16:48:58.394Z,30.01
2023-07-15T16:51:24.800Z,29.89
2023-07-15T16:53:51.127Z,29.82
2023-07-15T16:56:17.457Z,29.60
2023-07-15T16:58:43.825Z,29.55
2023-07-15T17:01:10.249Z,29.34
2023-07-15T17:03:36.708Z,29.45
2023-07-15T17:06:03.082Z,29.66
2023-07-15T17:08:29.413Z,29.73
2023-07-15T17:10:55.755Z,29.60
2023-07-15T17:13:22.081Z,29.46
2023-07-15T17:15:48.484Z,29.49
2023-07-15T17:18:14.929Z,29.39
2023-07-15T17:20:41.316Z,29.37
2023-07-15T17:23:07.799Z,29.06
2023-07-15T17:25:34.272Z,29.08
2023-07-15T17:28:00.620Z,29.04
2023-07-15T17:30:26.986Z,29.15
2023-07-15T17:32:53.373Z,29.25
2023-07-15T17:35:19.774Z,29.27
2023-07-15T17:37:46.096Z,29.27
2023-07-15T17:40:12.497Z,29.24
2023-07-15T17:42:38.875Z,29.14
2023-07-15T17:45:05.215Z,29.19
2023-07-15T17:47:31.587Z,29.02
2023-07-15T17:49:58.013Z,28.99
2023-07-15T17:52:24.439Z,28.97
2023-07-15T17:54:50.811Z,28.86
2023-07-15T17:57:17.154Z,28.69
2023-07-15T17:59:43.532Z,28.65
2023-07-15T18:02:09.861Z,28.37
2023-07-15T18:04:36.253Z,28.49
2023-07-15T18:07:02.668Z,28.45
2023-07-15T18:09:29.015Z,28.20
2023-07-15T18:11:55.363Z,28.32
2023-07-15T18:14:21.749Z,28.33
2023-07-15T18:16:48.062Z,28.36
2023-07-15T18:19:14.434Z,28.32
2023-07-15T18:21:40.825Z,28.21
2023-07-15T18:24:07.201Z,28.21
2023-07-15T18:26:33.584Z,28.27
2023-07-15T18:28:59.959Z,28.24
2023-07-15T18:31:26.381Z,28.21
2023-07-15T18:33:52.758Z,28.03
2023-07-15T18:36:19.124Z,27.98
2023-07-15T18:38:45.457Z,27.96
2023-07-15T18:41:11.777Z,28.00
2023-07-15T18:43:38.168Z,27.86
2023-07-15T18:46:04.526Z,27.81
2023-07-15T18:48:30.859Z,27.77
2023-07-15T18:50:57.209Z,27.85
2023-07-15T18:53:24.615Z,27.77
2023-07-15T18:55:50.946Z,27.63
2023-07-15T18:58:17.271Z,27.62
2023-07-15T19:00:43.704Z,27.68
2023-07-15T19:03:10.266Z,27.65
2023-07-15T19:05:36.644Z,27.57
2023-07-15T19:08:03.017Z,27.50
2023-07-15T19:10:29.407Z,27.46
2023-07-15T19:12:55.804Z,27.37
2023-07-15T19:15:22.220Z,27.41
2023-07-15T19:17:48.567Z,27.41
2023-07-15T19:20:14.967Z,27.52
2023-07-15T19:22:41.437Z,27.31
2023-07-15T19:25:07.973Z,27.38
2023-07-15T19:27:34.751Z,27.39
2023-07-15T19:30:01.917Z,27.33
2023-07-15T19:32:28.631Z,27.25
2023-07-15T19:34:55.033Z,27.09
2023-07-15T19:37:21.370Z,26.88
2023-07-15T19:39:47.702Z,26.57
2023-07-15T19:42:14.108Z,25.17
2023-07-15T19:44:40.499Z,25.29
2023-07-15T19:47:06.958Z,25.61
2023-07-15T19:49:33.377Z,25.61
2023-07-15T19:51:59.736Z,25.79
2023-07-15T19:54:26.147Z,25.87
2023-07-15T19:56:52.530Z,25.90
2023-07-15T19:59:18.911Z,25.86
2023-07-15T20:01:46.325Z,25.83
2023-07-15T20:04:12.821Z,25.79
2023-07-15T20:06:39.200Z,25.74
2023-07-15T20:09:05.547Z,25.61
2023-07-15T20:11:32.074Z,25.59
2023-07-15T20:13:58.682Z,25.39
2023-07-15T20:16:25.058Z,25.49
2023-07-15T20:18:51.530Z,25.49
2023-07-15T20:21:17.983Z,25.47
2023-07-15T20:23:44.423Z,25.48
2023-07-15T20:26:10.818Z,25.48
2023-07-15T20:28:37.193Z,25.47
2023-07-15T20:31:03.773Z,25.43
2023-07-15T20:33:30.227Z,25.38
2023-07-15T20:35:56.570Z,25.28
2023-07-15T20:38:22.974Z,25.18
2023-07-15T20:40:56.584Z,25.17
2023-07-15T20:43:24.282Z,25.13
2023-07-15T20:45:50.830Z,25.16
2023-07-15T20:48:17.292Z,24.93
2023-07-15T20:50:43.647Z,24.97
2023-07-15T20:53:10.071Z,24.99
2023-07-15T20:55:36.795Z,25.06
2023-07-15T20:58:03.214Z,25.11
2023-07-15T21:00:29.647Z,25.10
2023-07-15T21:02:56.146Z,24.99
2023-07-15T21:05:22.823Z,25.04
2023-07-15T21:07:49.173Z,25.00
2023-07-15T21:10:15.541Z,24.97
2023-07-15T21:12:41.932Z,24.95
2023-07-15T21:15:08.406Z,25.00
2023-07-15T21:17:34.846Z,24.96
2023-07-15T21:20:01.329Z,24.92
2023-07-15T21:22:27.799Z,24.33
2023-07-15T21:24:54.257Z,24.23
2023-07-15T21:27:20.785Z,24.40
2023-07-15T21:29:51.412Z,24.53
2023-07-15T21:32:17.845Z,24.58
2023-07-15T21:34:45.087Z,24.52
2023-07-15T21:37:13.984Z,24.58
2023-07-15T21:39:40.584Z,24.60
2023-07-15T21:42:07.143Z,24.67
2023-07-15T21:44:33.477Z,24.70
2023-07-15T21:47:00.213Z,24.52
2023-07-15T21:49:26.633Z,24.61
2023-07-15T21:51:53.020Z,24.59
2023-07-15T21:54:19.429Z,24.64
2023-07-15T21:56:45.829Z,24.34
2023-07-15T21:59:13.012Z,24.07
2023-07-15T22:01:39.479Z,24.15
2023-07-15T22:04:05.946Z,24.23
2023-07-15T22:06:32.368Z,24.25
2023-07-15T22:08:58.734Z,24.30
2023-07-15T22:11:25.773Z,24.29
2023-07-15T22:13:52.318Z,24.27
2023-07-15T22:16:19.981Z,24.29
2023-07-15T22:18:46.839Z,24.27
2023-07-15T22:21:13.251Z,24.33
2023-07-15T22:23:39.861Z,24.25
2023-07-15T22:26:06.766Z,24.33
2023-07-15T22:28:33.371Z,24.31
2023-07-15T22:30:59.724Z,24.07
2023-07-15T22:33:26.073Z,24.07
2023-07-15T22:35:52.397Z,24.00
2023-07-15T22:38:18.713Z,23.77
2023-07-15T22:40:45.052Z,23.54
2023-07-15T22:43:11.444Z,22.65
2023-07-15T22:45:52.071Z,22.39
2023-07-15T22:48:21.561Z,22.08
2023-07-15T22:50:47.894Z,22.14
2023-07-15T22:53:14.272Z,22.25
2023-07-15T22:55:40.625Z,21.97
2023-07-15T22:58:07.076Z,21.96
2023-07-15T23:00:33.600Z,22.14
2023-07-15T23:03:00.129Z,22.23
2023-07-15T23:05:30.871Z,22.26
2023-07-15T23:07:57.399Z,22.19
2023-07-15T23:10:23.812Z,22.30
2023-07-15T23:12:50.200Z,22.12
2023-07-15T23:15:16.612Z,22.15
2023-07-15T23:17:43.202Z,21.86
2023-07-15T23:20:09.922Z,22.07
2023-07-15T23:22:37.189Z,21.83
2023-07-15T23:25:03.578Z,21.92
2023-07-15T23:27:29.970Z,22.02
2023-07-15T23:29:56.358Z,22.08
2023-07-15T23:32:22.748Z,22.17
2023-07-15T23:34:49.104Z,22.24
2023-07-15T23:37:15.428Z,22.25
2023-07-15T23:39:41.774Z,22.34
2023-07-15T23:42:08.483Z,22.33
2023-07-15T23:44:34.879Z,22.26
2023-07-15T23:47:01.289Z,22.10
2023-07-15T23:49:29.230Z,22.12
2023-07-15T23:51:58.674Z,22.16
2023-07-15T23:54:25.094Z,21.98
2023-07-15T23:56:53.587Z,22.09
2023-07-15T23:59:19.979Z,22.11
